sensor_id;sensor_type;location;lat;lon;timestamp;P1;durP1;ratioP1;P2;durP2;ratioP2
39772;SDS011;25451;51.960;6.250;2022-07-23T00:02:22;3.67;;;2.20;;
39772;SDS011;25451;51.960;6.250;2022-07-23T00:04:48;3.57;;;2.10;;
39772;SDS011;25451;51.960;6.250;2022-07-23T00:07:13;3.30;;;1.90;;
39772;SDS011;25451;51.960;6.250;2022-07-23T00:09:39;3.42;;;1.90;;
39772;SDS011;25451;51.960;6.250;2022-07-23T00:12:04;5.30;;;1.80;;
39772;SDS011;25451;51.960;6.250;2022-07-23T00:14:30;5.27;;;1.97;;
39772;SDS011;25451;51.960;6.250;2022-07-23T00:16:55;4.33;;;1.87;;
39772;SDS011;25451;51.960;6.250;2022-07-23T00:19:20;5.67;;;2.20;;
39772;SDS011;25451;51.960;6.250;2022-07-23T00:21:45;4.15;;;2.10;;
39772;SDS011;25451;51.960;6.250;2022-07-23T00:24:11;4.33;;;1.80;;
39772;SDS011;25451;51.960;6.250;2022-07-23T00:26:36;2.80;;;1.80;;
39772;SDS011;25451;51.960;6.250;2022-07-23T00:29:01;4.63;;;1.63;;
39772;SDS011;25451;51.960;6.250;2022-07-23T00:31:27;3.17;;;1.80;;
39772;SDS011;25451;51.960;6.250;2022-07-23T00:33:52;3.70;;;2.10;;
39772;SDS011;25451;51.960;6.250;2022-07-23T00:36:21;4.55;;;1.95;;
39772;SDS011;25451;51.960;6.250;2022-07-23T00:38:48;3.25;;;1.98;;
39772;SDS011;25451;51.960;6.250;2022-07-23T00:41:13;3.87;;;2.13;;
39772;SDS011;25451;51.960;6.250;2022-07-23T00:43:39;4.77;;;2.10;;
39772;SDS011;25451;51.960;6.250;2022-07-23T00:46:04;5.77;;;2.10;;
39772;SDS011;25451;51.960;6.250;2022-07-23T00:48:29;4.13;;;2.10;;
39772;SDS011;25451;51.960;6.250;2022-07-23T00:50:55;4.00;;;1.97;;
39772;SDS011;25451;51.960;6.250;2022-07-23T00:53:20;3.78;;;1.95;;
39772;SDS011;25451;51.960;6.250;2022-07-23T00:55:46;5.97;;;2.17;;
39772;SDS011;25451;51.960;6.250;2022-07-23T00:58:12;5.57;;;2.30;;
39772;SDS011;25451;51.960;6.250;2022-07-23T01:00:38;3.97;;;2.43;;
39772;SDS011;25451;51.960;6.250;2022-07-23T01:03:03;4.03;;;2.27;;
39772;SDS011;25451;51.960;6.250;2022-07-23T01:05:28;4.10;;;2.30;;
39772;SDS011;25451;51.960;6.250;2022-07-23T01:07:54;4.63;;;2.20;;
39772;SDS011;25451;51.960;6.250;2022-07-23T01:10:19;4.95;;;2.33;;
39772;SDS011;25451;51.960;6.250;2022-07-23T01:12:58;4.43;;;2.10;;
39772;SDS011;25451;51.960;6.250;2022-07-23T01:15:28;4.57;;;2.20;;
39772;SDS011;25451;51.960;6.250;2022-07-23T01:17:54;4.32;;;2.40;;
39772;SDS011;25451;51.960;6.250;2022-07-23T01:20:20;4.40;;;2.20;;
39772;SDS011;25451;51.960;6.250;2022-07-23T01:22:45;4.53;;;2.30;;
39772;SDS011;25451;51.960;6.250;2022-07-23T01:25:11;5.65;;;2.70;;
39772;SDS011;25451;51.960;6.250;2022-07-23T01:27:38;5.13;;;2.33;;
39772;SDS011;25451;51.960;6.250;2022-07-23T01:30:03;4.07;;;2.20;;
39772;SDS011;25451;51.960;6.250;2022-07-23T01:32:29;6.03;;;2.50;;
39772;SDS011;25451;51.960;6.250;2022-07-23T01:34:55;4.57;;;2.35;;
39772;SDS011;25451;51.960;6.250;2022-07-23T01:37:20;4.37;;;2.37;;
39772;SDS011;25451;51.960;6.250;2022-07-23T01:39:45;5.03;;;2.60;;
39772;SDS011;25451;51.960;6.250;2022-07-23T01:42:11;5.23;;;2.60;;
39772;SDS011;25451;51.960;6.250;2022-07-23T01:44:36;4.53;;;2.50;;
39772;SDS011;25451;51.960;6.250;2022-07-23T01:47:01;4.70;;;2.37;;
39772;SDS011;25451;51.960;6.250;2022-07-23T01:49:27;4.22;;;2.25;;
39772;SDS011;25451;51.960;6.250;2022-07-23T01:51:52;4.30;;;2.70;;
39772;SDS011;25451;51.960;6.250;2022-07-23T01:56:56;5.37;;;2.33;;
39772;SDS011;25451;51.960;6.250;2022-07-23T01:59:23;7.15;;;2.40;;
39772;SDS011;25451;51.960;6.250;2022-07-23T02:01:48;5.18;;;2.78;;
39772;SDS011;25451;51.960;6.250;2022-07-23T02:04:16;5.00;;;2.53;;
39772;SDS011;25451;51.960;6.250;2022-07-23T02:06:41;5.03;;;2.38;;
39772;SDS011;25451;51.960;6.250;2022-07-23T02:09:07;6.37;;;2.70;;
39772;SDS011;25451;51.960;6.250;2022-07-23T02:11:32;6.53;;;2.50;;
39772;SDS011;25451;51.960;6.250;2022-07-23T02:13:58;5.15;;;2.50;;
39772;SDS011;25451;51.960;6.250;2022-07-23T02:16:23;6.83;;;2.80;;
39772;SDS011;25451;51.960;6.250;2022-07-23T02:18:48;6.47;;;3.00;;
39772;SDS011;25451;51.960;6.250;2022-07-23T02:21:13;5.37;;;2.90;;
39772;SDS011;25451;51.960;6.250;2022-07-23T02:23:39;6.67;;;2.90;;
39772;SDS011;25451;51.960;6.250;2022-07-23T02:26:04;6.07;;;2.77;;
39772;SDS011;25451;51.960;6.250;2022-07-23T02:28:29;5.00;;;2.70;;
39772;SDS011;25451;51.960;6.250;2022-07-23T02:30:55;5.77;;;2.67;;
39772;SDS011;25451;51.960;6.250;2022-07-23T02:33:20;4.73;;;2.77;;
39772;SDS011;25451;51.960;6.250;2022-07-23T02:35:45;4.85;;;2.40;;
39772;SDS011;25451;51.960;6.250;2022-07-23T02:38:10;4.60;;;2.67;;
39772;SDS011;25451;51.960;6.250;2022-07-23T02:40:36;5.53;;;2.47;;
39772;SDS011;25451;51.960;6.250;2022-07-23T02:43:01;4.03;;;2.30;;
39772;SDS011;25451;51.960;6.250;2022-07-23T02:45:26;4.57;;;2.47;;
39772;SDS011;25451;51.960;6.250;2022-07-23T02:47:52;5.67;;;2.60;;
39772;SDS011;25451;51.960;6.250;2022-07-23T02:50:17;5.30;;;2.70;;
39772;SDS011;25451;51.960;6.250;2022-07-23T02:52:42;5.43;;;2.67;;
39772;SDS011;25451;51.960;6.250;2022-07-23T02:55:08;5.78;;;2.58;;
39772;SDS011;25451;51.960;6.250;2022-07-23T02:57:34;4.83;;;2.53;;
39772;SDS011;25451;51.960;6.250;2022-07-23T02:59:59;4.27;;;2.50;;
39772;SDS011;25451;51.960;6.250;2022-07-23T03:02:24;6.65;;;2.60;;
39772;SDS011;25451;51.960;6.250;2022-07-23T03:04:50;6.30;;;2.70;;
39772;SDS011;25451;51.960;6.250;2022-07-23T03:07:16;4.60;;;2.50;;
39772;SDS011;25451;51.960;6.250;2022-07-23T03:09:42;6.40;;;2.55;;
39772;SDS011;25451;51.960;6.250;2022-07-23T03:12:08;4.63;;;2.45;;
39772;SDS011;25451;51.960;6.250;2022-07-23T03:14:33;5.20;;;2.73;;
39772;SDS011;25451;51.960;6.250;2022-07-23T03:16:59;3.93;;;2.37;;
39772;SDS011;25451;51.960;6.250;2022-07-23T03:19:27;4.90;;;2.67;;
39772;SDS011;25451;51.960;6.250;2022-07-23T03:21:52;4.20;;;2.70;;
39772;SDS011;25451;51.960;6.250;2022-07-23T03:24:17;5.27;;;2.70;;
39772;SDS011;25451;51.960;6.250;2022-07-23T03:26:43;6.00;;;2.60;;
39772;SDS011;25451;51.960;6.250;2022-07-23T03:29:08;5.25;;;2.70;;
39772;SDS011;25451;51.960;6.250;2022-07-23T03:31:34;5.50;;;2.30;;
39772;SDS011;25451;51.960;6.250;2022-07-23T03:33:59;5.03;;;2.53;;
39772;SDS011;25451;51.960;6.250;2022-07-23T03:36:25;4.47;;;2.30;;
39772;SDS011;25451;51.960;6.250;2022-07-23T03:38:50;3.78;;;2.20;;
39772;SDS011;25451;51.960;6.250;2022-07-23T03:41:16;4.90;;;2.67;;
39772;SDS011;25451;51.960;6.250;2022-07-23T03:43:42;5.47;;;2.42;;
39772;SDS011;25451;51.960;6.250;2022-07-23T03:46:08;5.97;;;2.53;;
39772;SDS011;25451;51.960;6.250;2022-07-23T03:48:33;4.10;;;2.50;;
39772;SDS011;25451;51.960;6.250;2022-07-23T03:50:58;3.87;;;2.40;;
39772;SDS011;25451;51.960;6.250;2022-07-23T03:53:24;5.20;;;2.85;;
39772;SDS011;25451;51.960;6.250;2022-07-23T03:55:49;4.50;;;2.80;;
39772;SDS011;25451;51.960;6.250;2022-07-23T03:58:14;6.83;;;3.03;;
39772;SDS011;25451;51.960;6.250;2022-07-23T04:00:39;5.47;;;3.00;;
39772;SDS011;25451;51.960;6.250;2022-07-23T04:03:05;5.63;;;3.40;;
39772;SDS011;25451;51.960;6.250;2022-07-23T04:05:30;6.03;;;3.33;;
39772;SDS011;25451;51.960;6.250;2022-07-23T04:07:56;9.00;;;3.87;;
39772;SDS011;25451;51.960;6.250;2022-07-23T04:10:21;8.43;;;3.70;;
39772;SDS011;25451;51.960;6.250;2022-07-23T04:12:46;6.73;;;3.60;;
39772;SDS011;25451;51.960;6.250;2022-07-23T04:15:12;5.40;;;3.50;;
39772;SDS011;25451;51.960;6.250;2022-07-23T04:17:37;7.17;;;3.57;;
39772;SDS011;25451;51.960;6.250;2022-07-23T04:20:02;6.73;;;3.53;;
39772;SDS011;25451;51.960;6.250;2022-07-23T04:22:28;6.10;;;3.40;;
39772;SDS011;25451;51.960;6.250;2022-07-23T04:24:53;8.10;;;3.37;;
39772;SDS011;25451;51.960;6.250;2022-07-23T04:27:19;8.30;;;3.50;;
39772;SDS011;25451;51.960;6.250;2022-07-23T04:29:44;7.03;;;3.90;;
39772;SDS011;25451;51.960;6.250;2022-07-23T04:32:09;5.50;;;2.97;;
39772;SDS011;25451;51.960;6.250;2022-07-23T04:34:35;4.77;;;3.17;;
39772;SDS011;25451;51.960;6.250;2022-07-23T04:37:00;6.40;;;3.53;;
39772;SDS011;25451;51.960;6.250;2022-07-23T04:39:25;4.78;;;3.10;;
39772;SDS011;25451;51.960;6.250;2022-07-23T04:41:51;4.70;;;2.90;;
39772;SDS011;25451;51.960;6.250;2022-07-23T04:44:16;5.70;;;3.00;;
39772;SDS011;25451;51.960;6.250;2022-07-23T04:46:41;5.97;;;2.93;;
39772;SDS011;25451;51.960;6.250;2022-07-23T04:49:07;6.07;;;3.03;;
39772;SDS011;25451;51.960;6.250;2022-07-23T04:51:32;5.83;;;2.97;;
39772;SDS011;25451;51.960;6.250;2022-07-23T04:53:57;6.87;;;3.20;;
39772;SDS011;25451;51.960;6.250;2022-07-23T04:56:23;5.80;;;3.00;;
39772;SDS011;25451;51.960;6.250;2022-07-23T04:58:48;5.23;;;3.30;;
39772;SDS011;25451;51.960;6.250;2022-07-23T05:01:13;8.23;;;3.40;;
39772;SDS011;25451;51.960;6.250;2022-07-23T05:03:39;4.87;;;2.77;;
39772;SDS011;25451;51.960;6.250;2022-07-23T05:06:04;5.17;;;3.30;;
39772;SDS011;25451;51.960;6.250;2022-07-23T05:08:30;4.75;;;2.95;;
39772;SDS011;25451;51.960;6.250;2022-07-23T05:10:55;7.57;;;3.63;;
39772;SDS011;25451;51.960;6.250;2022-07-23T05:13:20;7.77;;;3.10;;
39772;SDS011;25451;51.960;6.250;2022-07-23T05:15:46;6.40;;;2.87;;
39772;SDS011;25451;51.960;6.250;2022-07-23T05:18:11;6.80;;;3.37;;
39772;SDS011;25451;51.960;6.250;2022-07-23T05:20:37;6.97;;;3.20;;
39772;SDS011;25451;51.960;6.250;2022-07-23T05:23:02;5.37;;;3.30;;
39772;SDS011;25451;51.960;6.250;2022-07-23T05:25:28;6.07;;;3.20;;
39772;SDS011;25451;51.960;6.250;2022-07-23T05:27:53;5.55;;;3.40;;
39772;SDS011;25451;51.960;6.250;2022-07-23T05:30:19;7.00;;;3.60;;
39772;SDS011;25451;51.960;6.250;2022-07-23T05:32:44;6.13;;;3.50;;
39772;SDS011;25451;51.960;6.250;2022-07-23T05:35:09;5.70;;;3.33;;
39772;SDS011;25451;51.960;6.250;2022-07-23T05:37:35;7.30;;;3.30;;
39772;SDS011;25451;51.960;6.250;2022-07-23T05:40:04;6.07;;;3.60;;
39772;SDS011;25451;51.960;6.250;2022-07-23T05:42:32;7.63;;;3.40;;
39772;SDS011;25451;51.960;6.250;2022-07-23T05:44:58;8.82;;;3.22;;
39772;SDS011;25451;51.960;6.250;2022-07-23T05:47:24;6.67;;;3.13;;
39772;SDS011;25451;51.960;6.250;2022-07-23T05:49:49;6.13;;;3.17;;
39772;SDS011;25451;51.960;6.250;2022-07-23T05:52:14;7.13;;;3.27;;
39772;SDS011;25451;51.960;6.250;2022-07-23T05:54:40;5.33;;;3.00;;
39772;SDS011;25451;51.960;6.250;2022-07-23T05:57:05;4.90;;;2.97;;
39772;SDS011;25451;51.960;6.250;2022-07-23T05:59:30;6.40;;;3.10;;
39772;SDS011;25451;51.960;6.250;2022-07-23T06:01:56;4.93;;;2.73;;
39772;SDS011;25451;51.960;6.250;2022-07-23T06:04:21;4.50;;;2.70;;
39772;SDS011;25451;51.960;6.250;2022-07-23T06:06:46;4.80;;;2.70;;
39772;SDS011;25451;51.960;6.250;2022-07-23T06:09:12;7.88;;;3.00;;
39772;SDS011;25451;51.960;6.250;2022-07-23T06:11:38;5.70;;;2.80;;
39772;SDS011;25451;51.960;6.250;2022-07-23T06:14:04;5.75;;;2.72;;
39772;SDS011;25451;51.960;6.250;2022-07-23T06:16:30;6.77;;;3.20;;
39772;SDS011;25451;51.960;6.250;2022-07-23T06:18:55;7.27;;;2.77;;
39772;SDS011;25451;51.960;6.250;2022-07-23T06:21:20;5.97;;;2.60;;
39772;SDS011;25451;51.960;6.250;2022-07-23T06:23:45;7.83;;;2.60;;
39772;SDS011;25451;51.960;6.250;2022-07-23T06:26:11;4.73;;;2.53;;
39772;SDS011;25451;51.960;6.250;2022-07-23T06:28:36;5.20;;;2.47;;
39772;SDS011;25451;51.960;6.250;2022-07-23T06:31:01;4.43;;;2.47;;
39772;SDS011;25451;51.960;6.250;2022-07-23T06:33:27;6.83;;;2.50;;
39772;SDS011;25451;51.960;6.250;2022-07-23T06:35:52;5.43;;;2.40;;
39772;SDS011;25451;51.960;6.250;2022-07-23T06:38:17;5.00;;;2.20;;
39772;SDS011;25451;51.960;6.250;2022-07-23T06:40:43;4.80;;;2.53;;
39772;SDS011;25451;51.960;6.250;2022-07-23T06:43:09;5.38;;;2.28;;
39772;SDS011;25451;51.960;6.250;2022-07-23T06:45:35;4.40;;;2.30;;
39772;SDS011;25451;51.960;6.250;2022-07-23T06:48:00;5.32;;;2.25;;
39772;SDS011;25451;51.960;6.250;2022-07-23T06:50:27;4.57;;;2.07;;
39772;SDS011;25451;51.960;6.250;2022-07-23T06:52:52;4.57;;;2.30;;
39772;SDS011;25451;51.960;6.250;2022-07-23T06:55:18;4.20;;;2.00;;
39772;SDS011;25451;51.960;6.250;2022-07-23T06:57:43;4.60;;;2.13;;
39772;SDS011;25451;51.960;6.250;2022-07-23T07:00:09;3.90;;;2.00;;
39772;SDS011;25451;51.960;6.250;2022-07-23T07:02:34;4.72;;;1.90;;
39772;SDS011;25451;51.960;6.250;2022-07-23T07:05:00;7.10;;;2.27;;
39772;SDS011;25451;51.960;6.250;2022-07-23T07:07:25;4.47;;;2.20;;
39772;SDS011;25451;51.960;6.250;2022-07-23T07:09:51;4.37;;;1.90;;
39772;SDS011;25451;51.960;6.250;2022-07-23T07:12:16;5.93;;;1.83;;
39772;SDS011;25451;51.960;6.250;2022-07-23T07:14:41;6.87;;;1.90;;
39772;SDS011;25451;51.960;6.250;2022-07-23T07:17:07;3.63;;;1.90;;
39772;SDS011;25451;51.960;6.250;2022-07-23T07:19:32;4.10;;;1.70;;
39772;SDS011;25451;51.960;6.250;2022-07-23T07:21:57;5.27;;;1.80;;
39772;SDS011;25451;51.960;6.250;2022-07-23T07:24:23;5.20;;;1.33;;
39772;SDS011;25451;51.960;6.250;2022-07-23T07:26:48;3.77;;;1.50;;
39772;SDS011;25451;51.960;6.250;2022-07-23T07:29:13;5.07;;;1.67;;
39772;SDS011;25451;51.960;6.250;2022-07-23T07:31:39;3.42;;;1.40;;
39772;SDS011;25451;51.960;6.250;2022-07-23T07:34:04;4.20;;;1.80;;
39772;SDS011;25451;51.960;6.250;2022-07-23T07:36:30;3.50;;;1.80;;
39772;SDS011;25451;51.960;6.250;2022-07-23T07:38:55;4.33;;;1.80;;
39772;SDS011;25451;51.960;6.250;2022-07-23T07:41:20;3.27;;;1.97;;
39772;SDS011;25451;51.960;6.250;2022-07-23T07:43:49;5.13;;;1.85;;
39772;SDS011;25451;51.960;6.250;2022-07-23T07:46:14;6.20;;;2.60;;
39772;SDS011;25451;51.960;6.250;2022-07-23T07:48:40;4.47;;;2.13;;
39772;SDS011;25451;51.960;6.250;2022-07-23T07:51:05;4.53;;;2.10;;
39772;SDS011;25451;51.960;6.250;2022-07-23T07:53:31;4.15;;;2.00;;
39772;SDS011;25451;51.960;6.250;2022-07-23T07:55:56;3.33;;;1.70;;
39772;SDS011;25451;51.960;6.250;2022-07-23T07:58:22;3.00;;;1.40;;
39772;SDS011;25451;51.960;6.250;2022-07-23T08:00:47;4.27;;;1.63;;
39772;SDS011;25451;51.960;6.250;2022-07-23T08:03:12;6.33;;;2.00;;
39772;SDS011;25451;51.960;6.250;2022-07-23T08:05:38;2.75;;;1.70;;
39772;SDS011;25451;51.960;6.250;2022-07-23T08:08:03;4.23;;;1.43;;
39772;SDS011;25451;51.960;6.250;2022-07-23T08:10:29;5.10;;;1.50;;
39772;SDS011;25451;51.960;6.250;2022-07-23T08:12:56;5.18;;;1.50;;
39772;SDS011;25451;51.960;6.250;2022-07-23T08:15:23;4.40;;;1.58;;
39772;SDS011;25451;51.960;6.250;2022-07-23T08:17:49;4.15;;;1.70;;
39772;SDS011;25451;51.960;6.250;2022-07-23T08:20:16;3.97;;;1.40;;
39772;SDS011;25451;51.960;6.250;2022-07-23T08:22:49;3.83;;;1.60;;
39772;SDS011;25451;51.960;6.250;2022-07-23T08:25:15;2.58;;;1.60;;
39772;SDS011;25451;51.960;6.250;2022-07-23T08:27:51;2.47;;;1.60;;
39772;SDS011;25451;51.960;6.250;2022-07-23T08:30:17;3.63;;;1.67;;
39772;SDS011;25451;51.960;6.250;2022-07-23T08:32:54;3.63;;;1.67;;
39772;SDS011;25451;51.960;6.250;2022-07-23T08:35:25;2.97;;;1.42;;
39772;SDS011;25451;51.960;6.250;2022-07-23T08:37:55;3.33;;;1.50;;
39772;SDS011;25451;51.960;6.250;2022-07-23T08:40:23;2.47;;;1.33;;
39772;SDS011;25451;51.960;6.250;2022-07-23T08:42:51;4.38;;;1.67;;
39772;SDS011;25451;51.960;6.250;2022-07-23T08:45:18;3.60;;;1.50;;
39772;SDS011;25451;51.960;6.250;2022-07-23T08:47:47;3.70;;;1.75;;
39772;SDS011;25451;51.960;6.250;2022-07-23T08:50:14;5.47;;;1.50;;
39772;SDS011;25451;51.960;6.250;2022-07-23T08:52:40;3.50;;;1.50;;
39772;SDS011;25451;51.960;6.250;2022-07-23T08:55:05;2.58;;;1.38;;
39772;SDS011;25451;51.960;6.250;2022-07-23T08:57:32;4.50;;;1.77;;
39772;SDS011;25451;51.960;6.250;2022-07-23T08:59:57;4.13;;;1.70;;
39772;SDS011;25451;51.960;6.250;2022-07-23T09:02:23;6.10;;;1.70;;
39772;SDS011;25451;51.960;6.250;2022-07-23T09:04:48;2.80;;;1.30;;
39772;SDS011;25451;51.960;6.250;2022-07-23T09:07:13;2.63;;;1.50;;
39772;SDS011;25451;51.960;6.250;2022-07-23T09:09:39;2.00;;;1.10;;
39772;SDS011;25451;51.960;6.250;2022-07-23T09:12:05;5.00;;;1.53;;
39772;SDS011;25451;51.960;6.250;2022-07-23T09:14:44;5.30;;;1.58;;
39772;SDS011;25451;51.960;6.250;2022-07-23T09:17:14;4.00;;;1.43;;
39772;SDS011;25451;51.960;6.250;2022-07-23T09:19:42;2.58;;;1.40;;
39772;SDS011;25451;51.960;6.250;2022-07-23T09:25:02;4.65;;;1.52;;
39772;SDS011;25451;51.960;6.250;2022-07-23T09:30:14;7.23;;;1.57;;
39772;SDS011;25451;51.960;6.250;2022-07-23T09:32:39;3.57;;;1.30;;
39772;SDS011;25451;51.960;6.250;2022-07-23T09:35:05;4.87;;;1.40;;
39772;SDS011;25451;51.960;6.250;2022-07-23T09:37:31;3.25;;;1.20;;
39772;SDS011;25451;51.960;6.250;2022-07-23T09:40:04;5.10;;;1.40;;
39772;SDS011;25451;51.960;6.250;2022-07-23T09:42:30;2.30;;;1.20;;
39772;SDS011;25451;51.960;6.250;2022-07-23T09:44:56;2.00;;;1.10;;
39772;SDS011;25451;51.960;6.250;2022-07-23T09:47:23;3.72;;;1.30;;
39772;SDS011;25451;51.960;6.250;2022-07-23T09:50:06;3.40;;;1.20;;
39772;SDS011;25451;51.960;6.250;2022-07-23T09:52:43;3.17;;;1.30;;
39772;SDS011;25451;51.960;6.250;2022-07-23T09:55:09;2.60;;;1.13;;
39772;SDS011;25451;51.960;6.250;2022-07-23T09:57:35;5.57;;;1.35;;
39772;SDS011;25451;51.960;6.250;2022-07-23T10:00:01;3.47;;;1.50;;
39772;SDS011;25451;51.960;6.250;2022-07-23T10:02:32;2.85;;;1.20;;
39772;SDS011;25451;51.960;6.250;2022-07-23T10:04:58;2.40;;;1.25;;
39772;SDS011;25451;51.960;6.250;2022-07-23T10:07:26;3.85;;;1.58;;
39772;SDS011;25451;51.960;6.250;2022-07-23T10:09:54;2.83;;;1.20;;
39772;SDS011;25451;51.960;6.250;2022-07-23T10:12:20;2.58;;;1.20;;
39772;SDS011;25451;51.960;6.250;2022-07-23T10:15:13;3.35;;;1.38;;
39772;SDS011;25451;51.960;6.250;2022-07-23T10:17:38;2.63;;;1.30;;
39772;SDS011;25451;51.960;6.250;2022-07-23T10:20:04;2.73;;;1.10;;
39772;SDS011;25451;51.960;6.250;2022-07-23T10:22:31;3.22;;;1.40;;
39772;SDS011;25451;51.960;6.250;2022-07-23T10:28:08;3.92;;;1.35;;
39772;SDS011;25451;51.960;6.250;2022-07-23T10:36:19;7.00;;;1.40;;
39772;SDS011;25451;51.960;6.250;2022-07-23T10:39:05;2.87;;;1.37;;
39772;SDS011;25451;51.960;6.250;2022-07-23T10:41:34;2.70;;;1.50;;
39772;SDS011;25451;51.960;6.250;2022-07-23T10:44:15;5.30;;;1.80;;
39772;SDS011;25451;51.960;6.250;2022-07-23T10:47:01;3.78;;;1.45;;
39772;SDS011;25451;51.960;6.250;2022-07-23T10:49:46;3.65;;;1.50;;
39772;SDS011;25451;51.960;6.250;2022-07-23T10:57:21;3.90;;;1.70;;
39772;SDS011;25451;51.960;6.250;2022-07-23T11:02:46;2.67;;;1.30;;
39772;SDS011;25451;51.960;6.250;2022-07-23T11:05:14;2.55;;;1.40;;
39772;SDS011;25451;51.960;6.250;2022-07-23T11:10:37;5.00;;;1.90;;
39772;SDS011;25451;51.960;6.250;2022-07-23T11:16:06;3.90;;;1.77;;
39772;SDS011;25451;51.960;6.250;2022-07-23T11:37:06;3.33;;;1.40;;
39772;SDS011;25451;51.960;6.250;2022-07-23T11:39:33;3.08;;;1.70;;
39772;SDS011;25451;51.960;6.250;2022-07-23T11:41:59;3.42;;;1.63;;
39772;SDS011;25451;51.960;6.250;2022-07-23T11:44:26;3.90;;;1.73;;
39772;SDS011;25451;51.960;6.250;2022-07-23T11:46:59;3.80;;;1.77;;
39772;SDS011;25451;51.960;6.250;2022-07-23T11:49:26;3.20;;;1.63;;
39772;SDS011;25451;51.960;6.250;2022-07-23T11:52:14;2.95;;;1.27;;
39772;SDS011;25451;51.960;6.250;2022-07-23T11:54:47;3.45;;;1.50;;
39772;SDS011;25451;51.960;6.250;2022-07-23T11:57:23;4.50;;;1.50;;
39772;SDS011;25451;51.960;6.250;2022-07-23T11:59:51;4.78;;;1.45;;
39772;SDS011;25451;51.960;6.250;2022-07-23T12:02:19;2.80;;;1.47;;
39772;SDS011;25451;51.960;6.250;2022-07-23T12:04:47;2.53;;;1.50;;
39772;SDS011;25451;51.960;6.250;2022-07-23T12:10:03;3.78;;;1.60;;
39772;SDS011;25451;51.960;6.250;2022-07-23T12:15:07;5.03;;;1.70;;
39772;SDS011;25451;51.960;6.250;2022-07-23T12:17:35;3.15;;;1.55;;
39772;SDS011;25451;51.960;6.250;2022-07-23T12:20:02;4.30;;;1.42;;
39772;SDS011;25451;51.960;6.250;2022-07-23T12:22:35;4.13;;;1.60;;
39772;SDS011;25451;51.960;6.250;2022-07-23T12:25:04;2.90;;;1.40;;
39772;SDS011;25451;51.960;6.250;2022-07-23T12:27:31;2.37;;;1.40;;
39772;SDS011;25451;51.960;6.250;2022-07-23T12:29:57;2.90;;;1.30;;
39772;SDS011;25451;51.960;6.250;2022-07-23T12:32:26;4.33;;;1.57;;
39772;SDS011;25451;51.960;6.250;2022-07-23T12:35:08;3.58;;;1.48;;
39772;SDS011;25451;51.960;6.250;2022-07-23T12:40:22;4.07;;;1.50;;
39772;SDS011;25451;51.960;6.250;2022-07-23T12:42:54;2.92;;;1.30;;
39772;SDS011;25451;51.960;6.250;2022-07-23T12:45:25;4.35;;;1.42;;
39772;SDS011;25451;51.960;6.250;2022-07-23T12:50:40;3.93;;;1.53;;
39772;SDS011;25451;51.960;6.250;2022-07-23T12:53:09;3.42;;;1.50;;
39772;SDS011;25451;51.960;6.250;2022-07-23T12:55:39;2.90;;;1.52;;
39772;SDS011;25451;51.960;6.250;2022-07-23T12:58:07;3.30;;;1.60;;
39772;SDS011;25451;51.960;6.250;2022-07-23T13:00:49;3.40;;;1.40;;
39772;SDS011;25451;51.960;6.250;2022-07-23T13:03:28;5.90;;;1.97;;
39772;SDS011;25451;51.960;6.250;2022-07-23T13:06:03;3.08;;;1.60;;
39772;SDS011;25451;51.960;6.250;2022-07-23T13:08:31;2.95;;;1.52;;
39772;SDS011;25451;51.960;6.250;2022-07-23T13:10:57;3.25;;;1.50;;
39772;SDS011;25451;51.960;6.250;2022-07-23T13:13:23;4.00;;;1.60;;
39772;SDS011;25451;51.960;6.250;2022-07-23T13:15:51;3.42;;;1.70;;
39772;SDS011;25451;51.960;6.250;2022-07-23T13:18:17;2.35;;;1.40;;
39772;SDS011;25451;51.960;6.250;2022-07-23T13:20:44;2.90;;;1.60;;
39772;SDS011;25451;51.960;6.250;2022-07-23T13:23:10;3.20;;;1.50;;
39772;SDS011;25451;51.960;6.250;2022-07-23T13:25:36;2.33;;;1.40;;
39772;SDS011;25451;51.960;6.250;2022-07-23T13:28:01;3.40;;;1.70;;
39772;SDS011;25451;51.960;6.250;2022-07-23T13:30:27;2.80;;;1.40;;
39772;SDS011;25451;51.960;6.250;2022-07-23T13:32:53;4.03;;;1.70;;
39772;SDS011;25451;51.960;6.250;2022-07-23T13:35:18;4.00;;;1.60;;
39772;SDS011;25451;51.960;6.250;2022-07-23T13:37:43;4.03;;;1.70;;
39772;SDS011;25451;51.960;6.250;2022-07-23T13:40:09;3.67;;;1.70;;
39772;SDS011;25451;51.960;6.250;2022-07-23T13:42:35;4.50;;;1.60;;
39772;SDS011;25451;51.960;6.250;2022-07-23T13:45:01;2.63;;;1.55;;
39772;SDS011;25451;51.960;6.250;2022-07-23T13:47:28;6.10;;;1.90;;
39772;SDS011;25451;51.960;6.250;2022-07-23T13:49:53;2.50;;;1.50;;
39772;SDS011;25451;51.960;6.250;2022-07-23T13:52:18;2.30;;;1.50;;
39772;SDS011;25451;51.960;6.250;2022-07-23T13:54:43;2.60;;;1.70;;
39772;SDS011;25451;51.960;6.250;2022-07-23T13:57:09;2.57;;;1.60;;
39772;SDS011;25451;51.960;6.250;2022-07-23T13:59:34;3.43;;;1.70;;
39772;SDS011;25451;51.960;6.250;2022-07-23T14:02:02;2.95;;;1.52;;
39772;SDS011;25451;51.960;6.250;2022-07-23T14:04:28;5.50;;;2.65;;
39772;SDS011;25451;51.960;6.250;2022-07-23T14:06:53;7.63;;;1.80;;
39772;SDS011;25451;51.960;6.250;2022-07-23T14:09:19;2.70;;;1.70;;
39772;SDS011;25451;51.960;6.250;2022-07-23T14:11:44;5.03;;;1.60;;
39772;SDS011;25451;51.960;6.250;2022-07-23T14:14:09;3.87;;;1.60;;
39772;SDS011;25451;51.960;6.250;2022-07-23T14:16:35;3.40;;;1.73;;
39772;SDS011;25451;51.960;6.250;2022-07-23T14:19:00;3.17;;;1.70;;
39772;SDS011;25451;51.960;6.250;2022-07-23T14:21:25;5.37;;;1.80;;
39772;SDS011;25451;51.960;6.250;2022-07-23T14:23:51;4.10;;;1.80;;
39772;SDS011;25451;51.960;6.250;2022-07-23T14:26:16;4.63;;;1.60;;
39772;SDS011;25451;51.960;6.250;2022-07-23T14:28:41;3.80;;;1.60;;
39772;SDS011;25451;51.960;6.250;2022-07-23T14:31:07;3.27;;;1.80;;
39772;SDS011;25451;51.960;6.250;2022-07-23T14:33:32;4.70;;;1.70;;
39772;SDS011;25451;51.960;6.250;2022-07-23T14:35:57;10.27;;;2.00;;
39772;SDS011;25451;51.960;6.250;2022-07-23T14:38:24;5.87;;;1.80;;
39772;SDS011;25451;51.960;6.250;2022-07-23T14:40:49;2.80;;;1.70;;
39772;SDS011;25451;51.960;6.250;2022-07-23T14:43:14;3.83;;;1.70;;
39772;SDS011;25451;51.960;6.250;2022-07-23T14:45:40;4.17;;;1.80;;
39772;SDS011;25451;51.960;6.250;2022-07-23T14:48:05;12.70;;;2.47;;
39772;SDS011;25451;51.960;6.250;2022-07-23T14:50:30;4.20;;;1.83;;
39772;SDS011;25451;51.960;6.250;2022-07-23T14:52:56;4.18;;;1.85;;
39772;SDS011;25451;51.960;6.250;2022-07-23T14:55:21;3.50;;;1.70;;
39772;SDS011;25451;51.960;6.250;2022-07-23T14:57:46;3.73;;;1.83;;
39772;SDS011;25451;51.960;6.250;2022-07-23T15:00:12;6.87;;;1.97;;
39772;SDS011;25451;51.960;6.250;2022-07-23T15:02:38;6.22;;;2.47;;
39772;SDS011;25451;51.960;6.250;2022-07-23T15:05:03;3.30;;;2.10;;
39772;SDS011;25451;51.960;6.250;2022-07-23T15:07:29;3.50;;;1.80;;
39772;SDS011;25451;51.960;6.250;2022-07-23T15:09:55;3.40;;;1.95;;
39772;SDS011;25451;51.960;6.250;2022-07-23T15:12:21;3.20;;;1.70;;
39772;SDS011;25451;51.960;6.250;2022-07-23T15:14:46;2.90;;;1.93;;
39772;SDS011;25451;51.960;6.250;2022-07-23T15:17:12;3.10;;;1.90;;
39772;SDS011;25451;51.960;6.250;2022-07-23T15:19:37;3.83;;;1.90;;
39772;SDS011;25451;51.960;6.250;2022-07-23T15:22:02;4.30;;;1.90;;
39772;SDS011;25451;51.960;6.250;2022-07-23T15:24:29;3.50;;;1.83;;
39772;SDS011;25451;51.960;6.250;2022-07-23T15:26:55;3.35;;;1.80;;
39772;SDS011;25451;51.960;6.250;2022-07-23T15:29:21;2.63;;;1.77;;
39772;SDS011;25451;51.960;6.250;2022-07-23T15:31:46;3.87;;;1.87;;
39772;SDS011;25451;51.960;6.250;2022-07-23T15:34:11;3.70;;;1.87;;
39772;SDS011;25451;51.960;6.250;2022-07-23T15:36:37;4.77;;;1.90;;
39772;SDS011;25451;51.960;6.250;2022-07-23T15:39:03;3.87;;;2.17;;
39772;SDS011;25451;51.960;6.250;2022-07-23T15:41:28;3.45;;;1.85;;
39772;SDS011;25451;51.960;6.250;2022-07-23T15:43:54;2.90;;;1.97;;
39772;SDS011;25451;51.960;6.250;2022-07-23T15:46:19;3.67;;;1.88;;